createdAt,value
2022-08-21T00:01:43.390Z,17.51
2022-08-21T00:04:10.600Z,17.47
2022-08-21T00:06:38.056Z,17.43
2022-08-21T00:09:07.003Z,17.38
2022-08-21T00:11:35.999Z,17.32
2022-08-21T00:14:03.729Z,17.30
2022-08-21T00:16:30.430Z,17.30
2022-08-21T00:18:57.043Z,17.28
2022-08-21T00:21:23.671Z,17.24
2022-08-21T00:23:50.357Z,17.19
2022-08-21T00:26:16.964Z,17.21
2022-08-21T00:28:43.787Z,17.19
2022-08-21T00:31:10.453Z,17.15
2022-08-21T00:33:37.069Z,17.10
2022-08-21T00:36:06.877Z,17.10
2022-08-21T00:38:34.896Z,17.07
2022-08-21T00:41:36.891Z,17.05
2022-08-21T00:43:52.808Z,17.03
2022-08-21T00:46:20.166Z,17.09
2022-08-21T00:48:47.230Z,17.06
2022-08-21T00:51:19.956Z,17.11
2022-08-21T00:53:51.765Z,17.07
2022-08-21T00:56:21.996Z,17.05
2022-08-21T00:58:49.286Z,17.08
2022-08-21T01:01:22.261Z,17.08
2022-08-21T01:03:50.011Z,16.99
2022-08-21T01:06:17.245Z,16.96
2022-08-21T01:08:46.808Z,16.93
2022-08-21T01:11:16.398Z,16.89
2022-08-21T01:13:47.247Z,16.85
2022-08-21T01:16:19.785Z,16.85
2022-08-21T01:18:50.262Z,16.80
2022-08-21T01:21:28.301Z,16.75
2022-08-21T01:23:57.224Z,16.59
2022-08-21T01:26:34.063Z,16.53
2022-08-21T01:29:17.413Z,16.48
2022-08-21T01:31:44.798Z,16.43
2022-08-21T01:34:12.427Z,16.42
2022-08-21T01:36:41.593Z,16.37
2022-08-21T01:39:08.395Z,16.30
2022-08-21T01:41:35.031Z,16.24
2022-08-21T01:44:01.680Z,16.23
2022-08-21T01:46:31.275Z,16.12
2022-08-21T01:48:58.040Z,16.07
2022-08-21T01:51:24.730Z,16.12
2022-08-21T01:53:51.342Z,16.08
2022-08-21T01:56:18.338Z,16.05
2022-08-21T01:58:47.009Z,16.05
2022-08-21T02:01:14.094Z,16.12
2022-08-21T02:03:41.604Z,16.01
2022-08-21T02:06:12.834Z,15.94
2022-08-21T02:08:39.609Z,15.86
2022-08-21T02:11:06.685Z,15.84
2022-08-21T02:13:33.345Z,15.87
2022-08-21T02:16:00.054Z,15.78
2022-08-21T02:18:26.804Z,15.73
2022-08-21T02:20:55.268Z,15.60
2022-08-21T02:23:27.384Z,15.53
2022-08-21T02:26:02.621Z,15.47
2022-08-21T02:28:30.961Z,15.46
2022-08-21T02:30:57.708Z,15.43
2022-08-21T02:33:27.121Z,15.37
2022-08-21T02:35:54.661Z,15.30
2022-08-21T02:38:24.005Z,15.28
2022-08-21T02:40:52.400Z,15.23
2022-08-21T02:43:23.750Z,15.19
2022-08-21T02:45:50.921Z,15.16
2022-08-21T02:48:22.168Z,15.07
2022-08-21T02:50:53.361Z,15.04
2022-08-21T02:53:20.803Z,15.00
2022-08-21T02:55:50.193Z,14.93
2022-08-21T02:58:26.166Z,14.92
2022-08-21T03:00:53.648Z,14.88
2022-08-21T03:03:21.968Z,14.86
2022-08-21T03:05:48.708Z,14.80
2022-08-21T03:08:15.957Z,14.78
2022-08-21T03:10:45.304Z,14.74
2022-08-21T03:13:12.537Z,14.69
2022-08-21T03:15:39.303Z,14.66
2022-08-21T03:18:06.502Z,14.65
2022-08-21T03:20:34.635Z,14.63
2022-08-21T03:23:02.308Z,14.64
2022-08-21T03:25:39.765Z,14.65
2022-08-21T03:28:12.855Z,14.62
2022-08-21T03:30:41.555Z,14.61
2022-08-21T03:33:08.237Z,14.61
2022-08-21T03:35:34.915Z,14.65
2022-08-21T03:38:01.583Z,14.63
2022-08-21T03:40:28.486Z,14.62
2022-08-21T03:42:55.213Z,14.66
2022-08-21T03:45:22.322Z,14.61
2022-08-21T03:48:00.842Z,14.59
2022-08-21T03:50:31.852Z,14.58
2022-08-21T03:52:59.231Z,14.56
2022-08-21T03:55:26.956Z,14.52
2022-08-21T03:57:53.833Z,14.49
2022-08-21T04:00:21.703Z,14.49
2022-08-21T04:02:48.365Z,14.49
2022-08-21T04:05:28.118Z,14.48
2022-08-21T04:07:59.666Z,14.52
2022-08-21T04:10:28.954Z,14.53
2022-08-21T04:12:56.423Z,14.60
2022-08-21T04:15:24.756Z,14.58
2022-08-21T04:17:51.578Z,14.60
2022-08-21T04:20:22.208Z,14.64
2022-08-21T04:22:51.671Z,14.66
2022-08-21T04:25:20.300Z,14.68
2022-08-21T04:27:47.065Z,14.69
2022-08-21T04:30:16.429Z,14.74
2022-08-21T04:32:48.200Z,14.75
2022-08-21T04:35:18.450Z,14.79
2022-08-21T04:37:45.081Z,14.80
2022-08-21T04:40:14.279Z,14.86
2022-08-21T04:42:50.667Z,14.85
2022-08-21T04:45:29.647Z,14.94
2022-08-21T04:47:58.892Z,14.95
2022-08-21T04:50:39.549Z,15.00
2022-08-21T04:53:15.470Z,15.06
2022-08-21T04:55:42.962Z,15.09
2022-08-21T04:58:11.423Z,15.13
2022-08-21T05:00:38.381Z,15.16
2022-08-21T05:03:06.752Z,15.19
2022-08-21T05:05:33.761Z,15.19
2022-08-21T05:08:02.566Z,15.24
2022-08-21T05:10:29.417Z,15.30
2022-08-21T05:12:56.649Z,15.35
2022-08-21T05:15:23.371Z,15.41
2022-08-21T05:17:52.574Z,15.39
2022-08-21T05:20:27.202Z,15.40
2022-08-21T05:22:53.841Z,15.40
2022-08-21T05:25:22.286Z,15.44
2022-08-21T05:27:52.367Z,15.52
2022-08-21T05:30:20.120Z,15.56
2022-08-21T05:32:47.022Z,15.64
2022-08-21T05:35:14.578Z,15.71
2022-08-21T05:37:41.373Z,15.76
2022-08-21T05:40:22.819Z,15.81
2022-08-21T05:42:55.573Z,15.83
2022-08-21T05:45:39.317Z,15.90
2022-08-21T05:48:16.057Z,15.98
2022-08-21T05:50:43.755Z,16.00
2022-08-21T05:53:11.173Z,16.11
2022-08-21T05:55:42.758Z,16.15
2022-08-21T05:58:12.325Z,16.23
2022-08-21T06:00:39.034Z,16.32
2022-08-21T06:03:05.646Z,16.39
2022-08-21T06:05:37.322Z,16.45
2022-08-21T06:08:05.532Z,16.48
2022-08-21T06:10:32.407Z,16.53
2022-08-21T06:12:59.214Z,16.59
2022-08-21T06:15:27.430Z,16.70
2022-08-21T06:17:55.037Z,16.79
2022-08-21T06:20:22.031Z,16.77
2022-08-21T06:22:48.682Z,16.86
2022-08-21T06:25:15.655Z,16.89
2022-08-21T06:27:43.080Z,16.91
2022-08-21T06:30:10.756Z,16.99
2022-08-21T06:32:38.086Z,17.04
2022-08-21T06:35:07.128Z,17.14
2022-08-21T06:37:34.208Z,17.21
2022-08-21T06:40:01.156Z,17.39
2022-08-21T06:42:29.144Z,17.49
2022-08-21T06:44:56.033Z,17.62
2022-08-21T06:47:22.991Z,17.70
2022-08-21T06:49:50.046Z,17.87
2022-08-21T06:52:17.161Z,18.05
2022-08-21T06:54:44.153Z,18.07
2022-08-21T06:57:10.981Z,18.09
2022-08-21T06:59:37.803Z,18.18
2022-08-21T07:02:04.812Z,18.35
2022-08-21T07:04:31.619Z,18.48
2022-08-21T07:06:58.340Z,18.48
2022-08-21T07:09:25.343Z,18.49
2022-08-21T07:11:54.255Z,18.49
2022-08-21T07:14:21.054Z,18.59
2022-08-21T07:16:49.046Z,18.58
2022-08-21T07:19:15.958Z,18.63
2022-08-21T07:21:42.784Z,18.66
2022-08-21T07:24:09.904Z,18.55
2022-08-21T07:26:37.104Z,18.69
2022-08-21T07:29:04.616Z,18.91
2022-08-21T07:31:31.431Z,19.08
2022-08-21T07:33:58.642Z,19.23
2022-08-21T07:36:25.841Z,19.40
2022-08-21T07:38:53.103Z,19.51
2022-08-21T07:41:23.347Z,19.56
2022-08-21T07:43:52.784Z,19.53
2022-08-21T07:46:20.634Z,19.50
2022-08-21T07:48:47.507Z,19.59
2022-08-21T07:51:16.098Z,19.66
2022-08-21T07:53:43.551Z,19.71
2022-08-21T07:56:12.114Z,20.03
2022-08-21T07:58:39.096Z,20.09
2022-08-21T08:01:07.314Z,19.99
2022-08-21T08:03:34.443Z,20.05
2022-08-21T08:06:01.250Z,20.24
2022-08-21T08:08:29.145Z,20.34
2022-08-21T08:10:57.669Z,20.36
2022-08-21T08:13:25.083Z,20.43
2022-08-21T08:15:52.192Z,20.62
2022-08-21T08:18:19.100Z,20.44
2022-08-21T08:20:46.849Z,20.56
2022-08-21T08:23:14.922Z,20.58
2022-08-21T08:25:41.970Z,20.73
2022-08-21T08:28:16.534Z,20.90
2022-08-21T08:30:45.876Z,21.08
2022-08-21T08:33:12.667Z,21.13
2022-08-21T08:35:41.201Z,21.19
2022-08-21T08:38:09.508Z,21.29
2022-08-21T08:41:13.928Z,21.25
2022-08-21T08:43:42.469Z,21.20
2022-08-21T08:46:15.818Z,21.03
2022-08-21T08:48:59.952Z,20.90
2022-08-21T08:51:36.936Z,21.11
2022-08-21T08:54:11.078Z,21.28
2022-08-21T08:56:38.063Z,21.48
2022-08-21T08:59:32.996Z,21.64
2022-08-21T09:02:00.912Z,21.75
2022-08-21T09:04:29.798Z,21.85
2022-08-21T09:07:02.827Z,21.82
2022-08-21T09:10:01.722Z,21.72
2022-08-21T09:12:43.054Z,21.66
2022-08-21T09:15:25.463Z,21.71
2022-08-21T09:20:49.391Z,21.98
2022-08-21T09:23:33.071Z,21.97
2022-08-21T09:26:05.284Z,21.98
2022-08-21T09:28:34.517Z,21.89
2022-08-21T09:31:03.804Z,22.06
2022-08-21T09:33:30.634Z,22.19
2022-08-21T09:36:00.959Z,22.34
2022-08-21T09:38:33.560Z,22.45
2022-08-21T09:41:06.847Z,22.32
2022-08-21T09:43:34.393Z,22.54
2022-08-21T09:46:21.474Z,22.46
2022-08-21T09:48:51.277Z,22.44
2022-08-21T09:51:23.290Z,22.52
2022-08-21T09:53:53.031Z,22.47
2022-08-21T09:56:45.314Z,22.46
2022-08-21T09:59:36.479Z,22.48
2022-08-21T10:02:36.667Z,22.44
2022-08-21T10:05:18.947Z,22.68
2022-08-21T10:07:45.759Z,22.86
2022-08-21T10:10:23.394Z,22.88
2022-08-21T10:13:17.216Z,22.88
2022-08-21T10:16:15.280Z,22.89
2022-08-21T10:18:45.307Z,22.88
2022-08-21T10:21:39.348Z,22.87
2022-08-21T10:24:11.443Z,22.79
2022-08-21T10:27:21.061Z,22.99
2022-08-21T10:29:53.348Z,22.99
2022-08-21T10:33:00.362Z,23.08
2022-08-21T10:35:33.316Z,23.19
2022-08-21T10:38:46.397Z,23.17
2022-08-21T10:41:46.437Z,23.43
2022-08-21T10:44:46.456Z,23.57
2022-08-21T10:47:22.820Z,23.74
2022-08-21T10:50:22.310Z,23.73
2022-08-21T10:53:30.984Z,23.74
2022-08-21T10:56:15.350Z,23.83
2022-08-21T10:58:47.947Z,23.69
2022-08-21T11:01:20.535Z,23.57
2022-08-21T11:03:52.972Z,23.66
2022-08-21T11:06:48.130Z,23.61
2022-08-21T11:09:43.986Z,23.75
2022-08-21T11:15:59.363Z,23.63
2022-08-21T11:18:43.896Z,23.72
2022-08-21T11:21:49.791Z,23.49
2022-08-21T11:24:40.993Z,23.49
2022-08-21T11:27:24.443Z,23.43
2022-08-21T11:29:57.093Z,23.39
2022-08-21T11:32:42.492Z,23.51
2022-08-21T11:35:30.883Z,23.49
2022-08-21T11:38:19.358Z,23.43
2022-08-21T11:40:50.217Z,23.63
2022-08-21T11:43:31.350Z,23.58
2022-08-21T11:46:24.077Z,23.74
2022-08-21T11:49:08.041Z,23.58
2022-08-21T11:51:36.470Z,23.75
2022-08-21T11:54:09.035Z,24.00
2022-08-21T11:56:45.619Z,24.21
2022-08-21T11:59:21.744Z,24.36
2022-08-21T12:01:51.656Z,24.36
2022-08-21T12:04:27.870Z,24.50
2022-08-21T12:06:56.403Z,24.77
2022-08-21T12:09:26.266Z,24.94
2022-08-21T12:12:30.754Z,25.16
2022-08-21T12:15:06.517Z,25.18
2022-08-21T12:17:40.642Z,25.24
2022-08-21T12:20:34.030Z,24.99
2022-08-21T12:23:13.059Z,25.02
2022-08-21T12:26:03.862Z,25.27
2022-08-21T12:28:32.017Z,25.34
2022-08-21T12:30:59.016Z,25.37
2022-08-21T12:33:30.410Z,25.61
2022-08-21T12:36:11.914Z,25.81
2022-08-21T12:38:49.135Z,26.08
2022-08-21T12:41:23.529Z,26.00
2022-08-21T12:44:02.752Z,25.67
2022-08-21T12:46:37.817Z,25.58
2022-08-21T12:49:13.492Z,25.37
2022-08-21T12:52:15.581Z,25.19
2022-08-21T12:54:44.217Z,25.18
2022-08-21T12:57:20.245Z,25.12
2022-08-21T12:59:47.145Z,24.94
2022-08-21T13:02:20.804Z,25.12
2022-08-21T13:04:50.763Z,25.20
2022-08-21T13:07:29.821Z,25.25
2022-08-21T13:10:21.092Z,25.05
2022-08-21T13:12:48.332Z,24.88
2022-08-21T13:15:23.719Z,24.79
2022-08-21T13:17:51.692Z,24.52
2022-08-21T13:20:28.794Z,24.45
2022-08-21T13:22:56.002Z,24.23
2022-08-21T13:25:27.599Z,23.94
2022-08-21T13:28:15.941Z,23.94
2022-08-21T13:30:44.441Z,24.00
2022-08-21T13:33:13.173Z,24.16
2022-08-21T13:35:50.044Z,24.23
2022-08-21T13:38:20.092Z,24.54
2022-08-21T13:40:57.771Z,24.87
2022-08-21T13:43:29.581Z,24.96
2022-08-21T13:45:57.062Z,25.01
2022-08-21T13:48:27.174Z,25.19
2022-08-21T13:50:54.024Z,25.24
2022-08-21T13:53:33.488Z,24.80
2022-08-21T13:56:01.859Z,25.04
2022-08-21T13:58:34.800Z,25.15
2022-08-21T14:01:05.026Z,25.25
2022-08-21T14:03:44.262Z,25.31
2022-08-21T14:06:27.248Z,25.32
2022-08-21T14:09:12.693Z,25.57
2022-08-21T14:11:40.818Z,25.42
2022-08-21T14:14:21.924Z,25.42
2022-08-21T14:17:01.824Z,25.11
2022-08-21T14:19:48.792Z,24.61
2022-08-21T14:22:37.201Z,24.74
2022-08-21T14:25:17.563Z,24.79
2022-08-21T14:27:51.018Z,24.80
2022-08-21T14:30:35.188Z,24.75
2022-08-21T14:33:03.893Z,24.42
2022-08-21T14:35:33.765Z,24.20
2022-08-21T14:38:00.717Z,24.08
2022-08-21T14:40:27.915Z,23.93
2022-08-21T14:42:55.219Z,23.91
2022-08-21T14:45:30.615Z,23.92
2022-08-21T14:47:58.837Z,23.88
2022-08-21T14:50:28.131Z,23.88
2022-08-21T14:52:55.336Z,23.91
2022-08-21T14:55:22.033Z,23.93
2022-08-21T14:57:54.281Z,23.88
2022-08-21T15:00:27.048Z,23.82
2022-08-21T15:03:12.781Z,23.68
2022-08-21T15:05:39.428Z,23.54
2022-08-21T15:08:06.102Z,23.59
2022-08-21T15:10:34.235Z,23.61
2022-08-21T15:13:01.654Z,23.61
2022-08-21T15:15:30.637Z,23.61
2022-08-21T15:17:59.384Z,23.59
2022-08-21T15:20:26.145Z,23.73
2022-08-21T15:22:52.842Z,23.84
2022-08-21T15:25:19.507Z,23.82
2022-08-21T15:27:46.181Z,23.75
2022-08-21T15:30:13.069Z,23.73
2022-08-21T15:32:42.730Z,23.75
2022-08-21T15:35:10.091Z,23.82
2022-08-21T15:37:36.904Z,23.94
2022-08-21T15:40:10.973Z,24.04
2022-08-21T15:42:39.601Z,23.99
2022-08-21T15:45:06.976Z,23.98
2022-08-21T15:47:36.698Z,23.83
2022-08-21T15:50:05.552Z,23.71
2022-08-21T15:52:32.235Z,23.49
2022-08-21T15:54:58.903Z,23.31
2022-08-21T15:57:26.304Z,23.31
2022-08-21T15:59:58.915Z,23.31
2022-08-21T16:02:28.685Z,23.24
2022-08-21T16:04:56.693Z,23.07
2022-08-21T16:07:23.362Z,23.07
2022-08-21T16:09:50.305Z,22.88
2022-08-21T16:12:34.169Z,22.66
2022-08-21T16:15:02.336Z,22.66
2022-08-21T16:17:32.041Z,22.47
2022-08-21T16:20:05.525Z,22.41
2022-08-21T16:22:39.893Z,22.37
2022-08-21T16:25:15.784Z,22.42
2022-08-21T16:27:46.719Z,22.50
2022-08-21T16:30:23.925Z,22.44
2022-08-21T16:32:53.826Z,22.53
2022-08-21T16:35:22.377Z,22.46
2022-08-21T16:37:52.947Z,22.32
2022-08-21T16:40:23.153Z,22.23
2022-08-21T16:42:53.032Z,22.12
2022-08-21T16:45:21.428Z,21.89
2022-08-21T16:47:48.263Z,21.80
2022-08-21T16:50:17.581Z,21.71
2022-08-21T16:52:44.293Z,21.49
2022-08-21T16:55:10.937Z,21.32
2022-08-21T16:57:38.112Z,21.18
2022-08-21T17:00:09.149Z,21.07
2022-08-21T17:02:39.218Z,20.92
2022-08-21T17:05:06.799Z,20.79
2022-08-21T17:07:41.538Z,20.67
2022-08-21T17:10:10.017Z,20.55
2022-08-21T17:12:36.907Z,20.47
2022-08-21T17:15:21.175Z,20.40
2022-08-21T17:17:48.485Z,20.33
2022-08-21T17:20:15.660Z,20.24
2022-08-21T17:22:42.396Z,20.14
2022-08-21T17:25:09.436Z,20.07
2022-08-21T17:27:36.254Z,19.97
2022-08-21T17:30:04.066Z,19.89
2022-08-21T17:32:31.047Z,19.79
2022-08-21T17:34:57.689Z,19.70
2022-08-21T17:37:28.650Z,19.65
2022-08-21T17:39:56.636Z,19.55
2022-08-21T17:42:25.144Z,19.49
2022-08-21T17:44:52.130Z,19.41
2022-08-21T17:47:18.826Z,19.34
2022-08-21T17:49:45.522Z,19.26
2022-08-21T17:52:12.262Z,19.21
2022-08-21T17:54:41.009Z,19.17
2022-08-21T17:57:08.800Z,19.06
2022-08-21T17:59:35.435Z,18.96
2022-08-21T18:02:03.374Z,18.84
2022-08-21T18:04:30.654Z,18.78
2022-08-21T18:06:57.634Z,18.70
2022-08-21T18:09:31.400Z,18.64
2022-08-21T18:11:59.846Z,18.55
2022-08-21T18:14:32.553Z,18.50
2022-08-21T18:16:59.906Z,18.42
2022-08-21T18:19:26.777Z,18.33
2022-08-21T18:21:54.487Z,18.24
2022-08-21T18:24:22.075Z,18.19
2022-08-21T18:26:49.867Z,18.11
2022-08-21T18:29:19.166Z,18.00
2022-08-21T18:31:47.014Z,17.87
2022-08-21T18:34:21.198Z,17.78
2022-08-21T18:36:48.625Z,17.69
2022-08-21T18:39:35.438Z,17.61
2022-08-21T18:42:04.220Z,17.51
2022-08-21T18:44:31.909Z,17.46
2022-08-21T18:47:00.926Z,17.37
2022-08-21T18:49:28.358Z,17.29
2022-08-21T18:51:55.449Z,17.23
2022-08-21T18:54:24.473Z,17.15
2022-08-21T18:56:54.807Z,17.05
2022-08-21T18:59:21.986Z,16.97
2022-08-21T19:01:50.287Z,16.92
2022-08-21T19:04:41.166Z,16.87
2022-08-21T19:07:04.311Z,16.79
2022-08-21T19:09:31.181Z,16.65
2022-08-21T19:11:58.202Z,16.52
2022-08-21T19:14:25.014Z,16.45
2022-08-21T19:16:52.078Z,16.42
2022-08-21T19:19:18.843Z,16.34
2022-08-21T19:21:49.549Z,16.21
2022-08-21T19:24:17.650Z,16.08
2022-08-21T19:26:45.247Z,16.00
2022-08-21T19:29:12.603Z,15.91
2022-08-21T19:31:41.800Z,15.86
2022-08-21T19:34:24.566Z,15.76
2022-08-21T19:36:52.383Z,15.68
2022-08-21T19:39:19.304Z,15.62
2022-08-21T19:41:51.125Z,15.57
2022-08-21T19:44:21.331Z,15.52
2022-08-21T19:46:49.978Z,15.44
2022-08-21T19:49:19.853Z,15.37
2022-08-21T19:51:49.030Z,15.29
2022-08-21T19:54:19.356Z,15.24
2022-08-21T19:56:47.173Z,15.18
2022-08-21T19:59:16.073Z,15.10
2022-08-21T20:01:44.772Z,15.03
2022-08-21T20:04:17.974Z,14.96
2022-08-21T20:06:46.021Z,14.94
2022-08-21T20:09:14.238Z,14.92
2022-08-21T20:11:44.550Z,14.89
2022-08-21T20:14:12.902Z,14.85
2022-08-21T20:16:41.514Z,14.81
2022-08-21T20:19:08.975Z,14.77
2022-08-21T20:22:03.502Z,14.70
2022-08-21T20:24:30.307Z,14.60
2022-08-21T20:27:00.637Z,14.54
2022-08-21T20:32:15.599Z,14.49
2022-08-21T20:34:45.042Z,14.43
2022-08-21T20:37:12.223Z,14.38
2022-08-21T20:39:38.981Z,14.33
2022-08-21T20:42:08.924Z,-144.87
